Time;durP1;ratioP1;P1;durP2;ratioP2;P2;SDS_P1;SDS_P2;PMS_P1;PMS_P2;Temp;Humidity;BMP_temperature;BMP_pressure;BME280_temperature;BME280_humidity;BME280_pressure;Samples;Min_cycle;Max_cycle;Signal;HPM_P1;HPM_P2
2023/08/09 00:00:35;;;;;;;4.90;2.45;;;12.70;99.90;;;;;;5035129;28;20106;-33
2023/08/09 00:03:02;;;;;;;5.38;2.30;;;12.60;99.90;;;;;;5034756;28;20057;-34
2023/08/09 00:05:27;;;;;;;4.60;2.45;;;12.60;99.90;;;;;;5036533;28;20053;-33
2023/08/09 00:07:53;;;;;;;4.35;2.10;;;12.60;99.90;;;;;;5040813;28;20045;-34
2023/08/09 00:10:20;;;;;;;7.05;2.10;;;12.50;99.90;;;;;;5035693;28;20128;-33
2023/08/09 00:12:45;;;;;;;5.95;2.35;;;12.50;99.90;;;;;;5034448;28;20309;-34
2023/08/09 00:15:11;;;;;;;4.55;1.90;;;12.50;99.90;;;;;;5036125;28;20610;-34
2023/08/09 00:17:37;;;;;;;7.15;2.70;;;12.50;99.90;;;;;;5034645;28;20088;-34
2023/08/09 00:20:04;;;;;;;5.55;2.78;;;12.50;99.90;;;;;;5036323;28;20098;-33
2023/08/09 00:22:30;;;;;;;4.35;2.58;;;12.50;99.90;;;;;;5043576;28;20057;-34
2023/08/09 00:24:59;;;;;;;5.35;2.78;;;12.50;99.90;;;;;;5034136;28;20542;-34
2023/08/09 00:27:25;;;;;;;6.55;3.10;;;12.50;99.90;;;;;;5040870;28;20530;-34
2023/08/09 00:29:51;;;;;;;3.70;2.20;;;12.50;99.90;;;;;;5036638;28;20087;-33
2023/08/09 00:32:17;;;;;;;6.38;2.65;;;12.50;99.90;;;;;;5034850;28;20085;-33
2023/08/09 00:34:43;;;;;;;4.47;2.53;;;12.50;99.90;;;;;;5041456;28;20095;-34
2023/08/09 00:37:08;;;;;;;7.07;2.72;;;12.50;99.90;;;;;;5040769;28;20077;-33
2023/08/09 00:39:34;;;;;;;3.85;2.10;;;12.50;99.90;;;;;;5039126;28;20391;-34
2023/08/09 00:42:00;;;;;;;4.22;2.15;;;12.40;99.90;;;;;;5043190;28;20049;-34
2023/08/09 00:44:26;;;;;;;6.25;2.80;;;12.40;99.90;;;;;;5041734;28;20502;-34
2023/08/09 00:46:51;;;;;;;4.25;2.10;;;12.40;99.90;;;;;;5035925;28;20140;-34
2023/08/09 00:49:17;;;;;;;4.35;2.08;;;12.40;99.90;;;;;;5041230;28;20044;-33
2023/08/09 00:51:44;;;;;;;5.07;2.33;;;12.40;99.90;;;;;;5043095;28;20041;-34
2023/08/09 00:54:10;;;;;;;3.83;2.00;;;12.40;99.90;;;;;;5047200;28;20128;-34
2023/08/09 00:56:36;;;;;;;3.75;2.22;;;12.30;99.90;;;;;;5041307;28;20051;-34
2023/08/09 00:59:02;;;;;;;3.72;2.15;;;12.40;99.90;;;;;;5043982;28;20084;-33
2023/08/09 01:01:28;;;;;;;5.07;2.83;;;12.40;99.90;;;;;;5041448;28;20049;-33
2023/08/09 01:03:54;;;;;;;6.15;3.15;;;12.40;99.90;;;;;;5043559;28;20049;-34
2023/08/09 01:06:47;;;;;;;6.07;3.25;;;12.40;99.90;;;;;;5044320;28;20110;-33
2023/08/09 01:09:43;;;;;;;4.97;2.72;;;12.40;99.90;;;;;;5034605;28;20103;-33
2023/08/09 01:12:12;;;;;;;5.40;2.70;;;12.30;99.90;;;;;;5034676;28;20137;-33
2023/08/09 01:14:42;;;;;;;6.50;3.20;;;12.30;99.90;;;;;;5038977;28;20122;-33
2023/08/09 01:17:12;;;;;;;5.13;2.70;;;12.30;99.90;;;;;;5039960;28;20561;-34
2023/08/09 01:19:45;;;;;;;5.32;2.92;;;12.40;99.90;;;;;;5042369;28;20049;-34
2023/08/09 01:22:16;;;;;;;5.05;3.00;;;12.40;99.90;;;;;;5043384;28;20057;-35
2023/08/09 01:24:43;;;;;;;9.75;3.38;;;12.30;99.90;;;;;;5038726;28;20045;-34
2023/08/09 01:27:09;;;;;;;5.25;3.30;;;12.30;99.90;;;;;;5040375;28;20056;-33
2023/08/09 01:29:36;;;;;;;6.25;3.08;;;12.40;99.90;;;;;;5038859;28;20063;-33
2023/08/09 01:32:02;;;;;;;5.38;3.00;;;12.30;99.90;;;;;;5043777;28;20076;-33
2023/08/09 01:34:28;;;;;;;6.47;3.17;;;12.30;99.90;;;;;;5017204;28;20115;-33
2023/08/09 01:36:57;;;;;;;5.88;3.00;;;12.30;99.90;;;;;;5037613;28;20053;-33
2023/08/09 01:39:29;;;;;;;7.90;3.65;;;12.30;99.90;;;;;;5044794;28;20074;-33
2023/08/09 01:41:56;;;;;;;7.87;3.70;;;12.30;99.90;;;;;;5032102;28;20053;-33
2023/08/09 01:44:23;;;;;;;11.02;3.55;;;12.30;99.90;;;;;;5040686;28;20124;-33
2023/08/09 01:46:49;;;;;;;5.70;3.30;;;12.30;99.90;;;;;;5040401;28;20060;-33
2023/08/09 01:49:21;;;;;;;29.50;4.70;;;12.30;99.90;;;;;;5032722;28;21418;-34
2023/08/09 01:51:47;;;;;;;33.42;4.97;;;12.30;99.90;;;;;;5042089;28;20079;-34
2023/08/09 01:54:14;;;;;;;19.13;3.33;;;12.30;99.90;;;;;;5036630;28;20505;-33
2023/08/09 01:56:41;;;;;;;35.40;4.13;;;12.20;99.90;;;;;;5040704;28;20605;-33
2023/08/09 01:59:08;;;;;;;37.83;4.72;;;12.10;99.90;;;;;;5040068;28;20072;-34
2023/08/09 02:01:37;;;;;;;33.40;4.30;;;12.10;99.90;;;;;;5037838;28;20055;-33
2023/08/09 02:04:04;;;;;;;42.72;4.13;;;12.10;99.90;;;;;;5041246;28;20052;-33
2023/08/09 02:06:34;;;;;;;121.28;8.40;;;12.00;99.90;;;;;;5043486;28;20064;-33
2023/08/09 02:09:00;;;;;;;9.88;2.92;;;12.00;99.90;;;;;;5030762;28;20244;-33
2023/08/09 02:11:26;;;;;;;56.40;6.28;;;12.00;99.90;;;;;;5036523;28;20070;-33
2023/08/09 02:13:52;;;;;;;20.05;3.47;;;12.00;99.90;;;;;;5031386;28;20386;-33
2023/08/09 02:16:18;;;;;;;79.50;7.07;;;12.00;99.90;;;;;;5035158;28;20080;-33
2023/08/09 02:18:44;;;;;;;88.53;7.38;;;11.90;99.90;;;;;;5034022;28;20049;-33
2023/08/09 02:21:10;;;;;;;46.33;4.40;;;11.90;99.90;;;;;;5034207;28;20229;-34
2023/08/09 02:23:37;;;;;;;32.25;5.15;;;11.90;99.90;;;;;;5041187;28;20057;-34
2023/08/09 02:26:04;;;;;;;12.80;3.88;;;11.90;99.90;;;;;;5044586;28;20056;-33
2023/08/09 02:28:30;;;;;;;122.43;8.73;;;11.90;99.90;;;;;;5042052;28;20048;-33
2023/08/09 02:30:56;;;;;;;58.88;6.63;;;11.90;99.90;;;;;;5045043;28;20044;-33
2023/08/09 02:33:22;;;;;;;43.60;4.65;;;11.90;99.90;;;;;;5024331;28;20967;-33
2023/08/09 02:35:51;;;;;;;7.35;3.83;;;11.90;99.90;;;;;;5039341;28;20487;-33
2023/08/09 02:38:16;;;;;;;18.98;4.97;;;11.90;99.90;;;;;;5038466;28;20059;-33
2023/08/09 02:40:42;;;;;;;9.15;3.75;;;12.00;99.90;;;;;;5035152;28;20052;-33
2023/08/09 02:43:08;;;;;;;27.35;4.38;;;12.00;99.90;;;;;;5039634;28;20502;-33
2023/08/09 02:45:33;;;;;;;9.27;3.78;;;12.10;99.90;;;;;;5035198;28;20205;-33
2023/08/09 02:47:59;;;;;;;13.32;3.35;;;12.10;99.90;;;;;;5041655;28;20139;-33
2023/08/09 02:50:25;;;;;;;8.68;3.40;;;12.10;99.90;;;;;;5034914;28;20053;-33
2023/08/09 02:52:50;;;;;;;6.78;3.67;;;12.10;99.90;;;;;;5041036;28;20048;-34
2023/08/09 02:55:17;;;;;;;19.27;4.28;;;12.10;99.90;;;;;;5034515;28;20573;-36
2023/08/09 02:57:43;;;;;;;22.98;3.95;;;12.10;99.90;;;;;;5036529;28;20130;-34
2023/08/09 03:00:09;;;;;;;33.38;5.32;;;12.10;99.90;;;;;;5034569;28;20058;-33
2023/08/09 03:02:35;;;;;;;37.67;5.82;;;12.00;99.90;;;;;;5036388;28;20045;-33
2023/08/09 03:05:01;;;;;;;18.77;3.78;;;11.90;99.90;;;;;;5041209;28;20048;-33
2023/08/09 03:07:27;;;;;;;13.55;5.32;;;11.90;99.90;;;;;;5035967;28;20063;-33
2023/08/09 03:09:53;;;;;;;21.30;4.32;;;11.90;99.90;;;;;;5041790;28;20088;-33
2023/08/09 03:12:19;;;;;;;15.90;3.20;;;11.90;99.90;;;;;;5032338;28;20052;-33
2023/08/09 03:14:44;;;;;;;15.68;4.00;;;11.90;99.90;;;;;;5039442;28;20413;-33
2023/08/09 03:17:11;;;;;;;12.57;3.30;;;11.90;99.90;;;;;;5035536;28;20060;-33
2023/08/09 03:19:36;;;;;;;26.38;4.50;;;11.90;99.90;;;;;;5037837;28;20057;-33
2023/08/09 03:22:02;;;;;;;27.30;4.85;;;11.90;99.90;;;;;;5037274;28;20055;-33
2023/08/09 03:24:28;;;;;;;12.98;4.03;;;11.90;99.90;;;;;;5038291;28;20053;-33
2023/08/09 03:26:54;;;;;;;19.88;3.25;;;11.90;99.90;;;;;;5035595;28;20049;-33
2023/08/09 03:29:19;;;;;;;10.38;4.10;;;11.90;99.90;;;;;;5035171;28;20616;-33
2023/08/09 03:31:45;;;;;;;56.05;5.38;;;11.90;99.90;;;;;;5040492;28;20041;-33
2023/08/09 03:34:11;;;;;;;19.65;4.57;;;11.90;99.90;;;;;;5041873;28;20216;-33
2023/08/09 03:36:36;;;;;;;17.77;3.83;;;11.90;99.90;;;;;;5033912;28;20061;-33
2023/08/09 03:39:02;;;;;;;44.38;5.32;;;11.90;99.90;;;;;;5039462;28;20102;-33
2023/08/09 03:41:28;;;;;;;55.00;5.47;;;11.90;99.90;;;;;;5037169;28;20542;-33
2023/08/09 03:43:54;;;;;;;30.83;4.00;;;11.80;99.90;;;;;;5036109;28;20041;-33
2023/08/09 03:46:19;;;;;;;13.20;3.90;;;11.80;99.90;;;;;;5040635;28;20137;-33
2023/08/09 03:48:45;;;;;;;33.55;4.20;;;11.80;99.90;;;;;;5041746;28;20482;-33
2023/08/09 03:51:11;;;;;;;47.63;4.43;;;11.70;99.90;;;;;;5034556;28;20153;-34
2023/08/09 03:53:36;;;;;;;111.88;9.30;;;11.70;99.90;;;;;;5039673;28;20049;-33
2023/08/09 03:56:02;;;;;;;18.13;4.35;;;11.70;99.90;;;;;;5043213;28;20044;-33
2023/08/09 03:58:28;;;;;;;37.63;4.65;;;11.80;99.90;;;;;;5036834;28;20061;-33
2023/08/09 04:00:53;;;;;;;56.38;5.80;;;11.70;99.90;;;;;;5035390;28;20738;-33
2023/08/09 04:03:19;;;;;;;39.80;4.43;;;11.70;99.90;;;;;;5042063;28;20053;-33
2023/08/09 04:05:45;;;;;;;32.10;4.75;;;11.70;99.90;;;;;;5042962;28;20521;-33
2023/08/09 04:08:10;;;;;;;13.68;3.60;;;11.70;99.90;;;;;;5037372;28;20049;-33
2023/08/09 04:10:36;;;;;;;38.20;4.40;;;11.80;99.90;;;;;;5043514;28;20514;-33
2023/08/09 04:13:02;;;;;;;84.03;6.70;;;11.70;99.90;;;;;;5036387;28;20156;-33
2023/08/09 04:15:28;;;;;;;41.33;4.57;;;11.70;99.90;;;;;;5031630;28;20068;-33
2023/08/09 04:17:54;;;;;;;20.15;4.18;;;11.70;99.90;;;;;;5039296;28;20053;-33
2023/08/09 04:20:20;;;;;;;45.42;5.72;;;11.70;99.90;;;;;;5038361;28;20434;-33
2023/08/09 04:22:46;;;;;;;27.50;4.95;;;11.70;99.90;;;;;;5039825;28;20410;-33
2023/08/09 04:25:11;;;;;;;35.10;4.43;;;11.70;99.90;;;;;;5042616;28;20052;-33
2023/08/09 04:27:39;;;;;;;36.58;4.95;;;11.70;99.90;;;;;;5036232;28;20045;-34
2023/08/09 04:30:09;;;;;;;27.80;4.57;;;11.70;99.90;;;;;;5035547;28;20077;-34
2023/08/09 04:32:36;;;;;;;39.95;4.70;;;11.70;99.90;;;;;;5038428;28;20052;-33
2023/08/09 04:35:04;;;;;;;16.48;4.07;;;11.70;99.90;;;;;;5040049;28;20053;-34
2023/08/09 04:37:30;;;;;;;19.90;4.65;;;11.70;99.90;;;;;;5037079;28;20056;-34
2023/08/09 04:39:56;;;;;;;30.00;5.18;;;11.70;99.90;;;;;;5041073;28;20049;-34
2023/08/09 04:42:21;;;;;;;47.65;7.00;;;11.80;99.90;;;;;;5035936;28;20092;-34
2023/08/09 04:44:48;;;;;;;26.90;4.97;;;11.80;99.90;;;;;;5040615;28;20099;-34
2023/08/09 04:47:14;;;;;;;21.20;5.35;;;11.80;99.90;;;;;;5040831;28;20132;-33
2023/08/09 04:49:40;;;;;;;29.88;4.95;;;11.90;99.90;;;;;;5034765;28;20140;-34
2023/08/09 04:52:06;;;;;;;21.60;4.25;;;11.90;99.90;;;;;;5044527;28;20044;-34
2023/08/09 04:54:32;;;;;;;29.80;5.50;;;11.90;99.90;;;;;;5036864;28;20104;-34
2023/08/09 04:56:58;;;;;;;30.05;5.28;;;12.00;99.90;;;;;;5042252;28;20055;-34
2023/08/09 04:59:23;;;;;;;31.95;6.22;;;12.00;99.90;;;;;;5034390;28;20055;-34
2023/08/09 05:01:49;;;;;;;81.50;8.35;;;12.00;99.90;;;;;;5038603;28;20053;-34
2023/08/09 05:04:15;;;;;;;26.92;4.80;;;12.10;99.90;;;;;;5040942;28;20057;-34
2023/08/09 05:06:40;;;;;;;37.50;5.55;;;12.10;99.90;;;;;;5037321;28;20060;-34
2023/08/09 05:09:06;;;;;;;23.48;4.38;;;12.20;99.90;;;;;;5043064;28;20049;-34
2023/08/09 05:11:32;;;;;;;24.90;4.93;;;12.20;99.90;;;;;;5036532;28;20510;-34
2023/08/09 05:13:58;;;;;;;82.32;8.48;;;12.30;99.90;;;;;;5040214;28;20049;-34
2023/08/09 05:16:25;;;;;;;68.38;8.77;;;12.30;99.90;;;;;;5037524;28;20119;-34
2023/08/09 05:18:52;;;;;;;46.08;5.97;;;12.30;99.90;;;;;;5041582;28;20114;-34
2023/08/09 05:21:18;;;;;;;53.75;5.90;;;12.30;99.90;;;;;;5036550;28;20049;-34
2023/08/09 05:23:43;;;;;;;28.75;4.55;;;12.40;99.90;;;;;;5043888;28;20372;-34
2023/08/09 05:26:09;;;;;;;60.05;6.00;;;12.40;99.90;;;;;;5037944;28;20052;-34
2023/08/09 05:28:35;;;;;;;30.63;5.00;;;12.40;99.90;;;;;;5040677;28;20037;-35
2023/08/09 05:31:00;;;;;;;29.95;5.88;;;12.50;99.90;;;;;;5039098;28;20084;-34
2023/08/09 05:33:26;;;;;;;31.70;5.15;;;12.50;99.90;;;;;;5041859;28;20045;-34
2023/08/09 05:35:51;;;;;;;24.90;5.10;;;12.60;99.90;;;;;;5042388;28;20056;-34
2023/08/09 05:38:17;;;;;;;54.25;6.85;;;12.70;99.90;;;;;;5046953;28;20084;-34
2023/08/09 05:40:43;;;;;;;27.48;4.40;;;12.70;99.90;;;;;;5043242;28;20060;-34
2023/08/09 05:43:08;;;;;;;34.20;6.22;;;12.70;99.90;;;;;;5038725;28;20048;-34
2023/08/09 05:45:34;;;;;;;29.15;5.30;;;12.80;99.90;;;;;;5044271;28;20063;-34
2023/08/09 05:48:00;;;;;;;20.63;5.07;;;12.90;99.90;;;;;;5041378;28;20045;-34
2023/08/09 05:50:25;;;;;;;23.77;4.78;;;12.90;99.90;;;;;;5044173;28;20391;-34
2023/08/09 05:52:51;;;;;;;15.07;5.35;;;13.00;99.90;;;;;;5039713;28;20052;-34
2023/08/09 05:55:17;;;;;;;12.88;6.18;;;13.10;99.90;;;;;;5039641;28;20057;-34
2023/08/09 05:57:43;;;;;;;13.20;3.60;;;13.20;99.90;;;;;;5039593;28;21948;-34
2023/08/09 06:00:15;;;;;;;16.45;4.95;;;13.20;99.90;;;;;;5036925;28;20068;-34
2023/08/09 06:02:44;;;;;;;23.63;5.50;;;13.20;99.90;;;;;;5019831;28;20049;-34
2023/08/09 06:05:17;;;;;;;11.65;4.85;;;13.30;99.90;;;;;;5021976;28;20491;-34
2023/08/09 06:07:43;;;;;;;16.65;4.65;;;13.40;99.90;;;;;;5018589;28;20558;-34
2023/08/09 06:10:08;;;;;;;9.80;4.63;;;13.40;99.90;;;;;;5036955;28;20140;-34
2023/08/09 06:12:34;;;;;;;11.68;4.70;;;13.40;99.90;;;;;;5038519;28;20072;-34
2023/08/09 06:15:00;;;;;;;10.23;4.78;;;13.50;99.90;;;;;;5031473;28;20488;-33
2023/08/09 06:17:27;;;;;;;12.90;4.40;;;13.50;99.90;;;;;;5032849;28;20556;-34
2023/08/09 06:19:52;;;;;;;14.13;5.20;;;13.50;99.90;;;;;;5040835;28;20582;-33
2023/08/09 06:22:18;;;;;;;9.90;4.88;;;13.60;99.90;;;;;;5036781;28;20132;-34
2023/08/09 06:24:44;;;;;;;9.35;5.20;;;13.70;99.90;;;;;;5038029;28;20494;-33
2023/08/09 06:27:10;;;;;;;7.95;4.75;;;13.80;99.90;;;;;;5035941;28;20055;-34
2023/08/09 06:29:36;;;;;;;9.45;5.18;;;13.80;99.90;;;;;;5032466;28;20418;-34
2023/08/09 06:32:02;;;;;;;10.00;4.93;;;13.90;99.90;;;;;;5038033;28;20063;-34
2023/08/09 06:34:27;;;;;;;6.18;4.00;;;14.00;99.90;;;;;;5036234;28;20056;-34
2023/08/09 06:36:53;;;;;;;7.93;4.75;;;14.00;99.90;;;;;;5034545;28;20057;-33
2023/08/09 06:39:19;;;;;;;7.22;4.30;;;14.10;99.90;;;;;;5037413;28;20587;-33
2023/08/09 06:41:44;;;;;;;8.63;4.60;;;14.10;99.90;;;;;;5033731;28;20045;-33
2023/08/09 06:44:10;;;;;;;7.82;4.65;;;14.20;99.90;;;;;;5037889;28;20048;-34
2023/08/09 06:46:37;;;;;;;10.32;5.97;;;14.20;99.90;;;;;;5038665;28;20678;-34
2023/08/09 06:49:03;;;;;;;11.45;5.78;;;14.30;99.90;;;;;;5045440;28;20147;-33
2023/08/09 06:51:29;;;;;;;9.57;4.97;;;14.40;99.90;;;;;;5041890;28;20111;-34
2023/08/09 06:53:55;;;;;;;10.73;5.00;;;14.40;99.90;;;;;;5046148;28;20049;-33
2023/08/09 06:56:20;;;;;;;8.27;4.72;;;14.40;99.90;;;;;;5045718;28;20044;-34
2023/08/09 06:58:46;;;;;;;10.52;6.28;;;14.40;99.90;;;;;;5040135;28;20045;-34
2023/08/09 07:01:12;;;;;;;10.13;5.22;;;14.50;99.90;;;;;;5044594;28;20052;-34
2023/08/09 07:03:38;;;;;;;10.18;5.55;;;14.50;99.90;;;;;;5043176;28;20044;-34
2023/08/09 07:06:04;;;;;;;9.23;4.90;;;14.50;99.90;;;;;;5046035;28;20541;-34
2023/08/09 07:08:30;;;;;;;7.43;4.45;;;14.50;99.90;;;;;;5039379;28;20525;-34
2023/08/09 07:10:56;;;;;;;8.75;4.63;;;14.60;99.90;;;;;;5044247;28;20045;-34
2023/08/09 07:13:21;;;;;;;8.88;5.25;;;14.60;99.90;;;;;;5044901;28;20045;-34
2023/08/09 07:15:47;;;;;;;8.93;4.93;;;14.70;99.90;;;;;;5041683;28;20057;-33
2023/08/09 07:18:13;;;;;;;11.80;5.28;;;14.70;99.90;;;;;;5036815;28;20064;-34
2023/08/09 07:20:39;;;;;;;8.60;5.20;;;14.80;99.90;;;;;;5036925;28;20810;-34
2023/08/09 07:23:04;;;;;;;8.75;4.85;;;14.80;99.90;;;;;;5040016;28;20207;-34
2023/08/09 07:25:30;;;;;;;10.18;5.60;;;14.90;99.90;;;;;;5045944;28;20053;-34
2023/08/09 07:27:56;;;;;;;9.05;5.80;;;15.00;99.90;;;;;;5041906;28;20057;-34
2023/08/09 07:30:21;;;;;;;11.07;6.07;;;14.90;99.90;;;;;;5043412;28;20064;-34
2023/08/09 07:32:47;;;;;;;8.77;5.15;;;14.90;99.90;;;;;;5043272;28;20049;-34
2023/08/09 07:35:14;;;;;;;11.57;5.35;;;15.00;99.90;;;;;;5045845;28;20435;-34
2023/08/09 07:37:42;;;;;;;7.63;4.40;;;15.00;99.90;;;;;;5042439;28;20068;-34
2023/08/09 07:40:09;;;;;;;9.73;5.97;;;15.00;99.90;;;;;;5046239;28;20360;-34
2023/08/09 07:42:35;;;;;;;9.25;5.40;;;15.10;99.90;;;;;;5039996;28;20057;-34
2023/08/09 07:45:02;;;;;;;8.30;4.82;;;15.10;99.90;;;;;;5039148;28;20411;-34
2023/08/09 07:47:27;;;;;;;8.15;4.45;;;15.20;99.90;;;;;;5039208;28;20179;-34
2023/08/09 07:49:53;;;;;;;7.35;4.82;;;15.20;99.90;;;;;;5040565;28;20565;-34
2023/08/09 07:52:19;;;;;;;10.15;5.55;;;15.20;99.90;;;;;;5041207;28;20045;-34
2023/08/09 07:54:45;;;;;;;8.38;5.22;;;15.30;99.90;;;;;;5039066;28;20341;-34
2023/08/09 07:57:11;;;;;;;10.25;6.53;;;15.30;99.90;;;;;;5045163;28;20091;-34
2023/08/09 07:59:36;;;;;;;7.85;5.00;;;15.40;99.90;;;;;;5038605;28;20075;-34
2023/08/09 08:02:02;;;;;;;8.48;5.03;;;15.60;99.90;;;;;;5043877;28;20140;-34
2023/08/09 08:04:29;;;;;;;8.93;4.20;;;15.70;99.90;;;;;;5042955;28;20072;-34
2023/08/09 08:06:55;;;;;;;8.00;4.00;;;15.90;99.90;;;;;;5042034;28;20037;-34
2023/08/09 08:09:21;;;;;;;7.93;4.47;;;16.00;99.90;;;;;;5042986;28;20103;-34
2023/08/09 08:11:47;;;;;;;6.20;3.25;;;16.20;99.90;;;;;;5040106;28;20088;-34
2023/08/09 08:14:13;;;;;;;11.50;4.32;;;16.30;99.90;;;;;;5036565;28;20124;-34
2023/08/09 08:16:38;;;;;;;6.90;3.90;;;16.40;99.90;;;;;;5035272;28;20064;-34
2023/08/09 08:19:04;;;;;;;6.45;3.30;;;16.50;99.90;;;;;;5037154;28;20522;-34
2023/08/09 08:21:30;;;;;;;7.57;3.58;;;16.70;99.90;;;;;;5040213;28;20430;-34
2023/08/09 08:23:59;;;;;;;6.65;2.90;;;16.90;99.90;;;;;;5044128;28;20060;-34
2023/08/09 08:26:25;;;;;;;4.95;2.55;;;17.00;99.90;;;;;;5043130;28;20041;-34
2023/08/09 08:28:50;;;;;;;4.82;2.70;;;17.10;99.90;;;;;;5044765;28;20033;-34
2023/08/09 08:31:19;;;;;;;5.72;3.20;;;17.20;99.90;;;;;;5041232;28;20950;-34
2023/08/09 08:33:48;;;;;;;5.18;3.10;;;17.30;99.90;;;;;;5042082;28;20052;-34
2023/08/09 08:36:13;;;;;;;6.25;3.00;;;17.40;99.90;;;;;;5043796;28;20052;-34
2023/08/09 08:38:39;;;;;;;5.28;2.67;;;17.50;99.90;;;;;;5040241;28;21818;-34
2023/08/09 08:41:05;;;;;;;4.85;2.50;;;17.60;99.90;;;;;;5043813;28;20072;-34
2023/08/09 08:43:31;;;;;;;3.67;2.20;;;17.80;99.90;;;;;;5046669;28;20508;-34
2023/08/09 08:45:59;;;;;;;7.20;2.75;;;17.90;99.90;;;;;;5043212;28;20053;-34
2023/08/09 08:48:25;;;;;;;6.35;2.47;;;18.00;99.90;;;;;;5045695;28;20044;-34
2023/08/09 08:50:53;;;;;;;7.47;3.08;;;18.00;99.90;;;;;;5043823;28;20055;-34
2023/08/09 08:53:19;;;;;;;4.97;2.00;;;18.10;99.90;;;;;;5047455;28;20081;-34
2023/08/09 08:55:45;;;;;;;3.60;1.25;;;18.10;99.90;;;;;;5044979;28;20064;-34
2023/08/09 08:58:13;;;;;;;2.35;0.68;;;18.00;99.90;;;;;;5040134;28;20060;-34
2023/08/09 09:00:39;;;;;;;1.92;0.57;;;18.10;99.90;;;;;;5037423;28;20057;-34
2023/08/09 09:03:05;;;;;;;2.05;0.60;;;18.10;99.90;;;;;;5044817;28;20041;-34
2023/08/09 09:05:31;;;;;;;1.77;0.60;;;18.20;99.90;;;;;;5046838;28;20060;-34
2023/08/09 09:07:56;;;;;;;2.28;0.73;;;18.30;99.90;;;;;;5044425;28;20055;-34
2023/08/09 09:10:23;;;;;;;1.73;0.50;;;18.40;99.90;;;;;;5057525;28;20049;-34
2023/08/09 09:12:53;;;;;;;2.70;0.60;;;18.50;99.90;;;;;;5045388;28;20059;-34
2023/08/09 09:15:19;;;;;;;1.10;0.60;;;18.50;99.90;;;;;;5045941;28;20048;-34
2023/08/09 09:17:46;;;;;;;1.85;0.75;;;18.60;99.90;;;;;;5047389;28;20056;-34
2023/08/09 09:20:26;;;;;;;1.65;0.60;;;18.80;99.90;;;;;;5042053;28;20111;-34
2023/08/09 09:22:52;;;;;;;2.05;0.40;;;18.90;99.90;;;;;;5045577;28;20052;-34
2023/08/09 09:25:18;;;;;;;0.75;0.50;;;19.10;99.90;;;;;;5038185;28;20494;-34
2023/08/09 09:27:49;;;;;;;1.95;0.60;;;19.10;99.90;;;;;;5041868;28;20077;-34
2023/08/09 09:30:15;;;;;;;1.88;0.50;;;19.10;99.90;;;;;;5031800;28;20064;-34
2023/08/09 09:33:03;;;;;;;1.33;0.73;;;19.00;99.90;;;;;;5037650;28;20049;-34
2023/08/09 09:35:31;;;;;;;1.67;0.38;;;18.90;99.90;;;;;;5042730;28;20049;-34
2023/08/09 09:37:58;;;;;;;2.47;0.57;;;19.00;99.90;;;;;;5045840;28;20128;-34
2023/08/09 09:40:31;;;;;;;0.65;0.30;;;19.10;99.90;;;;;;5045875;28;20084;-34
2023/08/09 09:42:58;;;;;;;0.80;0.40;;;19.20;99.90;;;;;;5042892;28;20053;-34
2023/08/09 09:45:27;;;;;;;1.88;0.45;;;19.30;99.90;;;;;;5042427;28;20041;-34
2023/08/09 09:47:54;;;;;;;1.20;0.38;;;19.40;99.90;;;;;;5039471;28;20049;-34
2023/08/09 09:50:24;;;;;;;2.08;0.40;;;19.40;99.90;;;;;;5039670;28;20080;-34
2023/08/09 09:52:50;;;;;;;1.08;0.50;;;19.50;99.90;;;;;;5038052;28;20387;-34
2023/08/09 09:55:20;;;;;;;1.95;0.50;;;19.60;99.90;;;;;;5030557;28;20052;-34
2023/08/09 09:57:49;;;;;;;1.70;0.32;;;19.60;99.90;;;;;;5044648;28;20051;-34
2023/08/09 10:00:15;;;;;;;0.88;0.30;;;19.50;99.90;;;;;;5038321;28;20049;-34
2023/08/09 10:02:49;;;;;;;2.97;0.30;;;19.40;99.90;;;;;;5041219;28;20563;-34
2023/08/09 10:05:28;;;;;;;0.95;0.30;;;19.40;99.90;;;;;;5038088;28;20048;-34
2023/08/09 10:07:55;;;;;;;1.13;0.30;;;19.40;99.90;;;;;;5038153;28;21276;-34
2023/08/09 10:10:22;;;;;;;1.00;0.30;;;19.50;99.90;;;;;;5032447;28;20064;-34
2023/08/09 10:12:51;;;;;;;2.25;0.50;;;19.40;99.90;;;;;;5034349;28;20053;-34
2023/08/09 10:15:22;;;;;;;2.72;0.70;;;19.50;99.90;;;;;;5043745;28;20040;-34
2023/08/09 10:17:51;;;;;;;1.10;0.60;;;19.40;99.90;;;;;;5045577;28;20052;-34
2023/08/09 10:20:17;;;;;;;2.08;0.43;;;19.50;99.90;;;;;;5047219;28;20420;-34
2023/08/09 10:22:47;;;;;;;1.67;1.00;;;19.60;99.90;;;;;;5045098;28;20155;-34
2023/08/09 10:25:13;;;;;;;2.08;0.38;;;19.70;99.90;;;;;;5047673;28;20150;-34
2023/08/09 10:27:50;;;;;;;1.50;0.60;;;19.70;99.90;;;;;;5041676;28;20608;-34
2023/08/09 10:30:25;;;;;;;3.08;0.63;;;19.70;99.90;;;;;;5039902;28;20053;-34
2023/08/09 10:32:53;;;;;;;1.30;0.43;;;19.80;99.90;;;;;;5043843;28;20048;-34
2023/08/09 10:35:20;;;;;;;1.55;0.60;;;19.80;99.90;;;;;;5042146;28;20183;-34
2023/08/09 10:37:47;;;;;;;2.90;0.55;;;19.90;99.90;;;;;;5046773;28;20049;-34
2023/08/09 10:40:19;;;;;;;1.85;0.40;;;20.00;99.90;;;;;;5044120;28;20061;-34
2023/08/09 10:42:47;;;;;;;2.38;0.70;;;20.10;99.90;;;;;;5046836;28;20272;-34
2023/08/09 10:45:14;;;;;;;3.30;0.60;;;20.10;99.90;;;;;;5045156;28;20062;-34
2023/08/09 10:47:41;;;;;;;1.48;0.68;;;20.10;99.90;;;;;;5045428;28;20446;-34
2023/08/09 10:50:13;;;;;;;1.85;0.70;;;20.20;99.90;;;;;;5035121;28;20114;-34
2023/08/09 10:52:51;;;;;;;1.73;0.80;;;20.20;99.90;;;;;;5037337;28;20053;-34
2023/08/09 10:55:20;;;;;;;2.45;0.70;;;20.30;99.90;;;;;;5036531;28;20052;-34
2023/08/09 10:57:49;;;;;;;2.22;0.60;;;20.40;99.90;;;;;;5041045;28;20517;-34
2023/08/09 11:00:16;;;;;;;2.00;0.65;;;20.50;99.90;;;;;;5041950;28;20049;-34
2023/08/09 11:02:46;;;;;;;1.77;0.52;;;20.50;99.90;;;;;;5035567;28;20128;-34
2023/08/09 11:05:12;;;;;;;2.58;0.52;;;20.50;99.90;;;;;;5037833;28;20135;-34
2023/08/09 11:07:53;;;;;;;0.73;0.40;;;20.60;99.90;;;;;;5037174;28;29582;-34
2023/08/09 11:10:49;;;;;;;2.17;0.50;;;20.60;99.90;;;;;;5040296;28;20531;-34
2023/08/09 11:13:18;;;;;;;2.50;0.55;;;20.40;99.90;;;;;;5033155;28;20047;-34
2023/08/09 11:15:46;;;;;;;1.65;0.50;;;20.50;99.90;;;;;;5033476;28;20091;-34
2023/08/09 11:18:12;;;;;;;2.63;0.52;;;20.50;99.90;;;;;;5034202;28;20171;-34
2023/08/09 11:20:39;;;;;;;2.03;0.60;;;20.60;99.90;;;;;;5034260;28;20156;-34
2023/08/09 11:23:05;;;;;;;2.85;0.60;;;20.60;99.90;;;;;;5035301;28;20832;-34
2023/08/09 11:25:33;;;;;;;3.10;0.60;;;20.70;99.90;;;;;;5038254;28;20057;-34
2023/08/09 11:28:01;;;;;;;2.28;0.73;;;20.90;99.90;;;;;;5038298;28;20052;-34
2023/08/09 11:30:30;;;;;;;2.10;0.60;;;21.00;99.90;;;;;;5036511;28;20067;-34
2023/08/09 11:32:59;;;;;;;1.30;0.60;;;21.00;99.90;;;;;;5043158;28;20081;-34
2023/08/09 11:35:39;;;;;;;1.92;0.50;;;21.10;99.90;;;;;;5038911;28;20056;-34
2023/08/09 11:38:09;;;;;;;2.75;0.60;;;21.30;99.90;;;;;;5043687;28;20510;-34
2023/08/09 11:40:40;;;;;;;2.08;0.60;;;21.40;99.90;;;;;;5037458;28;20095;-34
2023/08/09 11:43:10;;;;;;;1.70;0.50;;;21.40;99.90;;;;;;5038580;28;20088;-34
2023/08/09 11:45:49;;;;;;;1.63;0.68;;;21.50;99.90;;;;;;5040791;28;20068;-34
2023/08/09 11:48:29;;;;;;;3.78;0.65;;;21.30;99.90;;;;;;5040151;28;20044;-34
2023/08/09 11:51:09;;;;;;;1.55;0.47;;;21.50;99.90;;;;;;5040389;28;20516;-34
2023/08/09 11:53:37;;;;;;;2.60;0.55;;;21.50;99.90;;;;;;5041329;28;20528;-34
2023/08/09 11:56:10;;;;;;;2.58;0.50;;;21.50;99.90;;;;;;5041241;28;20068;-34
2023/08/09 11:58:37;;;;;;;3.08;0.57;;;21.50;99.90;;;;;;5036204;28;20053;-34
2023/08/09 12:01:31;;;;;;;3.03;0.50;;;21.50;99.90;;;;;;5041316;28;20049;-34
2023/08/09 12:04:04;;;;;;;1.08;0.60;;;21.40;99.90;;;;;;5034086;28;20064;-34
2023/08/09 12:06:45;;;;;;;2.35;0.60;;;21.30;99.90;;;;;;5040386;28;20054;-34
2023/08/09 12:09:35;;;;;;;1.63;0.50;;;21.30;99.90;;;;;;5042307;28;20053;-34
2023/08/09 12:12:08;;;;;;;2.70;0.50;;;21.30;99.90;;;;;;5040537;28;20098;-34
2023/08/09 12:14:36;;;;;;;1.00;0.40;;;21.50;99.90;;;;;;5041645;28;20520;-34
2023/08/09 12:17:02;;;;;;;2.25;0.50;;;21.60;99.90;;;;;;5045963;28;20151;-34
2023/08/09 12:19:28;;;;;;;3.00;0.52;;;21.70;99.90;;;;;;5043284;28;20053;-34
2023/08/09 12:21:55;;;;;;;1.13;0.50;;;21.80;99.90;;;;;;5042734;28;20051;-34
2023/08/09 12:24:20;;;;;;;1.25;0.43;;;22.00;99.90;;;;;;5040723;28;20056;-34
2023/08/09 12:26:46;;;;;;;2.88;0.88;;;21.90;99.90;;;;;;5040198;28;20445;-34
2023/08/09 12:29:12;;;;;;;1.95;0.40;;;21.90;99.90;;;;;;5041316;28;20520;-34
2023/08/09 12:31:38;;;;;;;2.50;0.50;;;21.90;99.90;;;;;;5048453;28;20044;-33
2023/08/09 12:34:04;;;;;;;3.83;0.40;;;21.60;99.90;;;;;;5043985;28;20056;-34
2023/08/09 12:36:30;;;;;;;1.27;0.50;;;21.60;99.90;;;;;;5046125;28;20045;-34
2023/08/09 12:38:57;;;;;;;0.75;0.40;;;21.50;99.90;;;;;;5043504;28;20138;-33
2023/08/09 12:41:24;;;;;;;2.63;0.45;;;21.60;99.90;;;;;;5047773;28;20183;-33
2023/08/09 12:43:50;;;;;;;2.25;0.57;;;21.70;99.90;;;;;;5042172;28;20052;-34